createdAt,value
2022-08-03T00:01:41.087Z,35.43
2022-08-03T00:08:02.886Z,35.42
2022-08-03T00:14:37.087Z,35.47
2022-08-03T00:21:03.403Z,35.38
2022-08-03T00:27:32.926Z,35.37
2022-08-03T00:34:07.307Z,35.34
2022-08-03T00:40:54.825Z,35.3
2022-08-03T00:47:38.858Z,35.4
2022-08-03T00:54:15.917Z,35.38
2022-08-03T01:00:51.979Z,35.36
2022-08-03T01:07:41.496Z,35.33
2022-08-03T01:14:51.683Z,35.27
2022-08-03T01:22:08.399Z,35.13
2022-08-03T01:29:14.876Z,35.17
2022-08-03T01:36:23.994Z,35.15
2022-08-03T01:43:54.962Z,35.16
2022-08-03T01:50:18.880Z,35.18
2022-08-03T01:57:06.191Z,35.19
2022-08-03T02:03:59.498Z,35.16
2022-08-03T02:10:36.039Z,35.19
2022-08-03T02:17:38.433Z,35.33
2022-08-03T02:24:18.893Z,35.28
2022-08-03T02:31:12.670Z,35.31
2022-08-03T02:38:09.952Z,35.24
2022-08-03T02:44:50.522Z,35.28
2022-08-03T02:51:39.713Z,35.32
2022-08-03T02:58:13.025Z,35.22
2022-08-03T03:04:55.000Z,35.36
2022-08-03T03:11:28.468Z,35.19
2022-08-03T03:18:02.932Z,35.36
2022-08-03T03:24:45.567Z,35.3
2022-08-03T03:31:29.522Z,35.32
2022-08-03T03:37:54.913Z,35.28
2022-08-03T03:44:27.524Z,35.35
2022-08-03T03:51:06.939Z,35.25
2022-08-03T03:58:00.712Z,35.29
2022-08-03T04:04:38.950Z,35.19
2022-08-03T04:11:16.976Z,35.63
2022-08-03T04:18:00.136Z,35.96
2022-08-03T04:24:52.896Z,36.02
2022-08-03T04:31:43.834Z,35.99
2022-08-03T04:38:33.631Z,36.1
2022-08-03T04:45:33.588Z,36.08
2022-08-03T04:52:17.229Z,36.1
2022-08-03T04:58:46.977Z,36.17
2022-08-03T05:05:13.480Z,36.11
2022-08-03T05:11:39.463Z,36.1
2022-08-03T05:18:04.601Z,36.11
2022-08-03T05:24:37.160Z,36.05
2022-08-03T05:31:18.989Z,36.12
2022-08-03T05:37:55.264Z,36.14
2022-08-03T05:44:21.964Z,36.11
2022-08-03T05:50:53.775Z,36.14
2022-08-03T05:57:31.980Z,36.16
2022-08-03T06:04:09.597Z,36.07
2022-08-03T06:10:46.243Z,36.15
2022-08-03T06:17:15.658Z,36.12
2022-08-03T06:23:53.617Z,36.11
2022-08-03T06:30:28.084Z,35.97
2022-08-03T06:37:02.496Z,35.83
2022-08-03T06:43:35.708Z,35.79
2022-08-03T06:50:18.504Z,35.35
2022-08-03T06:57:03.438Z,35.42
2022-08-03T07:03:27.696Z,35.48
2022-08-03T07:09:58.160Z,35.47
2022-08-03T07:16:26.244Z,35.49
2022-08-03T07:22:52.721Z,35.47
2022-08-03T07:29:17.382Z,35.47
2022-08-03T07:35:55.621Z,35.39
2022-08-03T07:42:19.336Z,35.38
2022-08-03T07:48:53.822Z,35.32
2022-08-03T07:55:27.441Z,35.37
2022-08-03T08:01:49.334Z,35.32
2022-08-03T08:08:12.014Z,35.26
2022-08-03T08:14:42.645Z,35.19
2022-08-03T08:21:11.740Z,35.16
2022-08-03T08:28:21.979Z,35.14
2022-08-03T08:34:46.208Z,34.98
2022-08-03T08:41:15.626Z,34.92
2022-08-03T08:47:53.253Z,34.96
2022-08-03T08:54:44.753Z,34.75
2022-08-03T09:01:28.119Z,34.78
2022-08-03T09:07:58.673Z,34.88
2022-08-03T09:14:55.125Z,34.99
2022-08-03T09:21:43.124Z,35.01
2022-08-03T09:29:00.314Z,35.02
2022-08-03T09:35:55.437Z,35
2022-08-03T09:42:58.628Z,34.96
2022-08-03T09:49:41.520Z,34.85
2022-08-03T09:56:37.165Z,34.81
2022-08-03T10:03:35.742Z,34.56
2022-08-03T10:10:35.144Z,34.48
2022-08-03T10:17:18.144Z,34.5
2022-08-03T10:24:01.155Z,34.42
2022-08-03T10:30:49.138Z,34.31
2022-08-03T10:37:56.628Z,34.44
2022-08-03T10:45:02.561Z,34.63
2022-08-03T10:51:42.266Z,34.91
2022-08-03T10:58:53.541Z,34.66
2022-08-03T11:05:50.118Z,34.75
2022-08-03T11:12:32.755Z,34.78
2022-08-03T11:19:27.932Z,34.8
2022-08-03T11:26:19.814Z,34.83
2022-08-03T11:33:17.063Z,34.8
2022-08-03T11:40:07.705Z,34.9
2022-08-03T11:46:53.595Z,34.93
2022-08-03T11:53:55.181Z,35.01
2022-08-03T12:00:58.277Z,35.07
2022-08-03T12:08:02.959Z,34.96
2022-08-03T12:14:55.240Z,35.04
2022-08-03T12:21:57.057Z,35.05
2022-08-03T12:28:58.801Z,35.06
2022-08-03T12:36:00.142Z,35.15
2022-08-03T12:43:15.207Z,35.2
2022-08-03T12:49:50.733Z,35.04
2022-08-03T12:56:38.891Z,35.08
2022-08-03T13:03:39.855Z,34.98
2022-08-03T13:10:25.137Z,34.95
2022-08-03T13:17:20.917Z,34.98
2022-08-03T13:23:49.368Z,34.93
2022-08-03T13:30:30.003Z,35.09
2022-08-03T13:37:12.335Z,34.96
2022-08-03T13:44:25.325Z,35.1
2022-08-03T13:51:25.313Z,35.4
2022-08-03T13:58:56.184Z,35.58
2022-08-03T14:06:10.794Z,35.32
2022-08-03T14:13:38.952Z,35.51
2022-08-03T14:21:14.085Z,35.64
2022-08-03T14:28:45.653Z,35.78
2022-08-03T14:36:31.671Z,35.85
2022-08-03T14:44:05.284Z,35.93
2022-08-03T14:51:53.641Z,36.04
2022-08-03T14:59:54.087Z,36.05
2022-08-03T15:07:17.632Z,36.04
2022-08-03T15:14:45.932Z,36.05
2022-08-03T15:22:34.895Z,36.16
2022-08-03T15:30:10.599Z,36.23
2022-08-03T15:37:45.389Z,36.32
2022-08-03T15:45:20.430Z,36.31
2022-08-03T15:53:31.886Z,36.3
2022-08-03T16:01:05.540Z,36.33
2022-08-03T16:08:33.566Z,36.33
2022-08-03T16:16:06.849Z,36.36
2022-08-03T16:23:51.666Z,36.42
2022-08-03T16:31:29.089Z,36.41
2022-08-03T16:39:13.130Z,36.55
2022-08-03T16:46:49.915Z,36.53
2022-08-03T16:54:21.571Z,36.58
2022-08-03T17:02:10.342Z,36.67
2022-08-03T17:09:57.482Z,36.74
2022-08-03T17:17:43.694Z,36.72
2022-08-03T17:26:07.560Z,36.73
2022-08-03T17:34:19.358Z,36.58
2022-08-03T17:42:29.734Z,36.5
2022-08-03T17:49:59.369Z,36.05
2022-08-03T17:58:15.356Z,36.57
2022-08-03T18:06:18.472Z,36.83
2022-08-03T18:14:17.222Z,36.76
2022-08-03T18:29:51.859Z,37.03
2022-08-03T18:37:51.750Z,37
2022-08-03T18:45:55.465Z,36.98
2022-08-03T18:54:07.436Z,36.89
2022-08-03T19:02:25.650Z,36.96
2022-08-03T19:10:23.724Z,36.9
2022-08-03T19:18:29.808Z,36.99
2022-08-03T19:26:18.353Z,37.07
2022-08-03T19:34:02.383Z,37.05
2022-08-03T19:41:41.758Z,37.06
2022-08-03T19:50:05.408Z,36.91
2022-08-03T19:58:00.122Z,37.07
2022-08-03T20:05:54.121Z,37.2
2022-08-03T20:13:39.281Z,37.14
2022-08-03T20:21:24.015Z,37.04
2022-08-03T20:29:14.736Z,37.21
2022-08-03T20:36:49.602Z,37
2022-08-03T20:44:26.576Z,37.03
2022-08-03T20:52:00.829Z,37.15
2022-08-03T20:59:47.463Z,37.08
2022-08-03T21:07:45.859Z,36.83
2022-08-03T21:16:15.543Z,36.71
2022-08-03T21:24:24.282Z,36.64
2022-08-03T21:32:02.492Z,36.67
2022-08-03T21:39:58.199Z,36.72
2022-08-03T21:47:33.007Z,36.74
2022-08-03T21:55:21.531Z,36.56
2022-08-03T22:03:17.506Z,36.93
2022-08-03T22:10:47.495Z,37.08
2022-08-03T22:18:17.519Z,37.15
2022-08-03T22:25:56.305Z,37.07
2022-08-03T22:33:40.164Z,37.15
2022-08-03T22:41:20.627Z,37.08
2022-08-03T22:48:55.903Z,36.98
2022-08-03T22:56:37.612Z,36.98
2022-08-03T23:04:12.179Z,36.95
2022-08-03T23:11:57.151Z,36.89
2022-08-03T23:19:45.863Z,36.84
2022-08-03T23:27:14.943Z,36.87
2022-08-03T23:34:28.339Z,36.57
2022-08-03T23:41:41.287Z,36.52
2022-08-03T23:48:30.049Z,36.34
2022-08-03T23:55:36.312Z,36.14
